Nolan, West Virginia
Current Conditions -  °F | °C
As of 4:15 PM on Saturday 25 Oct 2014 (Local Time) from KSJS Reporting Station
Overcast Overcast  
Wind Chill: 66°   Ceiling: 2800
Heat Index: 66°   Visibility: 10mi
Dew Point: 50°   Wind: 7mph
Humidity: 57%   Direction: 250°WSW
Pressure: 29.98"   Gusts: NA
Location:  37.74°N, 82.33°W
Report Text: KSJS 252015Z AUTO 25006KT 10SM BKN028 OVC037 19/10 A2998 RMK AO2 T01880102
Loading
Personal Weather Stations






























Interactive Weather Map
Tropical Storm Tracking
New forecast layout! Learn more

10-Day Weather Forecast

Advertisements
Track Severe Weather on mobile